Pagrindinis puslapis
METAR-TAF:

METAR-TAF

Oro uostai :

Samujis, Tailandas

platuma: 09-32-52N, ilguma: 100-03-44E, Aukštis: 20 m

Dabartinis oras

Ataskaita buvo paskelbta 8 valandos ir 26 minutes, ne 13:00 UTC
Vėjas 3 kt iš Rytų
Temperatūra 29°C
Drėgmė 79%
Slėgis 1012 hPa
Matomumas 10 km arba daugiau
Mažai debesys ne aukštis 2000 ft

METAR: VTSM 121300Z 09003KT 9999 FEW020 29/25 Q1012 NOSIG

Laikas: 04:26 (21:26 UTC)

Prognozė

Ataskaita buvo paskelbta 4 valandos ir 26 minutes, ne 17:00 UTC
Prognozė galioja nuo 12 metu 18 UTC su 13 metu 18 UTC
Vėjas 5 kt iš Rytų/Pietryčių
Matomumas 10 km arba daugiau
Mažai debesys ne aukštis 2000 ft
Laikinai
nuo 13 metu 00 UTC su 13 metu 06 UTC
Matomumas: 4000 m
Mažai debesys ne aukštis 1600 ft, Liūtiniai kamuoliniai debesys.
Išsisklaidę debesys ne aukštis 1800 ft
Su prošvaistėmis ne aukštis 10000 ft
perkūnija, lietus

TAF: VTSM 121700Z 1218/1318 12005KT 9999 FEW020 TEMPO 1300/1306 4000 TSRA FEW016CB SCT018 BKN100

Orai ataskaitas ir orų prognozės (METAR, TAF).

turimą stotys yra geltonos ir raudonos taškus žemėlapyje.

Perkelti pele per norėdami pamatyti stoties vardą.

Tada spustelėkite, norėdami matyti oro stebėjimo ir prognozės.

Norėdami pakeisti žemėlapį: spustelėkite ant žalios mygtukų su juodo kryžiaus žemyn,; žalią mygtuką su brūkšneliu, jei norite nutolinti; arba žalių rodyklių gretimoms žemėlapius.


METAR-TAF: